sensor_id;sensor_type;location;lat;lon;timestamp;pressure;altitude;pressure_sealevel;temperature;humidity
65756;BME280;52489;47.502;18.940;2022-07-29T00:00:20;98146.12;;;23.25;44.79
65756;BME280;52489;47.502;18.940;2022-07-29T00:01:23;98144.56;;;23.17;45.03
65756;BME280;52489;47.502;18.940;2022-07-29T00:02:26;98148.75;;;23.11;45.17
65756;BME280;52489;47.502;18.940;2022-07-29T00:03:29;98145.72;;;23.20;44.97
65756;BME280;52489;47.502;18.940;2022-07-29T00:04:34;98146.09;;;23.22;44.90
65756;BME280;52489;47.502;18.940;2022-07-29T00:05:39;98150.66;;;23.10;45.18
65756;BME280;52489;47.502;18.940;2022-07-29T00:06:42;98145.31;;;23.14;45.08
65756;BME280;52489;47.502;18.940;2022-07-29T00:07:45;98143.78;;;23.16;45.04
65756;BME280;52489;47.502;18.940;2022-07-29T00:08:48;98133.06;;;23.09;45.23
65756;BME280;52489;47.502;18.940;2022-07-29T00:09:51;98144.50;;;23.10;45.24
65756;BME280;52489;47.502;18.940;2022-07-29T00:10:53;98151.41;;;23.07;45.41
65756;BME280;52489;47.502;18.940;2022-07-29T00:11:59;98140.66;;;23.04;45.38
65756;BME280;52489;47.502;18.940;2022-07-29T00:13:02;98143.75;;;23.06;45.37
65756;BME280;52489;47.502;18.940;2022-07-29T00:14:05;98144.13;;;23.04;45.38
65756;BME280;52489;47.502;18.940;2022-07-29T00:15:08;98143.75;;;23.06;45.43
65756;BME280;52489;47.502;18.940;2022-07-29T00:16:11;98141.47;;;23.04;45.43
65756;BME280;52489;47.502;18.940;2022-07-29T00:17:18;98149.09;;;23.09;45.38
65756;BME280;52489;47.502;18.940;2022-07-29T00:18:20;98145.66;;;23.05;45.48
65756;BME280;52489;47.502;18.940;2022-07-29T00:19:23;98147.56;;;23.05;45.48
65756;BME280;52489;47.502;18.940;2022-07-29T00:20:26;98143.72;;;23.02;45.58
65756;BME280;52489;47.502;18.940;2022-07-29T00:21:29;98140.13;;;22.77;46.34
65756;BME280;52489;47.502;18.940;2022-07-29T00:22:32;98139.03;;;22.85;46.14
65756;BME280;52489;47.502;18.940;2022-07-29T00:23:35;98141.34;;;22.90;46.01
65756;BME280;52489;47.502;18.940;2022-07-29T00:24:38;98149.81;;;22.96;45.81
65756;BME280;52489;47.502;18.940;2022-07-29T00:25:47;98152.91;;;23.05;45.60
65756;BME280;52489;47.502;18.940;2022-07-29T00:26:49;98155.84;;;22.89;46.02
65756;BME280;52489;47.502;18.940;2022-07-29T00:27:52;98148.97;;;22.91;46.02
65756;BME280;52489;47.502;18.940;2022-07-29T00:28:55;98147.88;;;22.92;45.99
65756;BME280;52489;47.502;18.940;2022-07-29T00:30:18;98147.88;;;22.92;45.93
65756;BME280;52489;47.502;18.940;2022-07-29T00:31:21;98145.91;;;22.86;46.19
65756;BME280;52489;47.502;18.940;2022-07-29T00:32:23;98151.28;;;22.93;46.01
65756;BME280;52489;47.502;18.940;2022-07-29T00:33:30;98149.03;;;22.95;45.93
65756;BME280;52489;47.502;18.940;2022-07-29T00:34:32;98147.91;;;22.96;45.91
65756;BME280;52489;47.502;18.940;2022-07-29T00:35:54;98156.69;;;22.97;45.95
65756;BME280;52489;47.502;18.940;2022-07-29T00:36:58;98147.50;;;22.98;45.82
65756;BME280;52489;47.502;18.940;2022-07-29T00:38:01;98150.91;;;22.91;46.07
65756;BME280;52489;47.502;18.940;2022-07-29T00:39:03;98153.25;;;22.96;45.93
65756;BME280;52489;47.502;18.940;2022-07-29T00:40:07;98151.97;;;22.76;46.62
65756;BME280;52489;47.502;18.940;2022-07-29T00:41:13;98151.63;;;22.84;46.35
65756;BME280;52489;47.502;18.940;2022-07-29T00:42:16;98145.12;;;22.85;46.33
65756;BME280;52489;47.502;18.940;2022-07-29T00:43:19;98143.28;;;22.89;46.16
65756;BME280;52489;47.502;18.940;2022-07-29T00:44:22;98147.81;;;22.89;46.21
65756;BME280;52489;47.502;18.940;2022-07-29T00:45:24;98149.72;;;22.85;46.30
65756;BME280;52489;47.502;18.940;2022-07-29T00:46:27;98147.03;;;22.81;46.40
65756;BME280;52489;47.502;18.940;2022-07-29T00:47:30;98143.19;;;22.79;46.50
65756;BME280;52489;47.502;18.940;2022-07-29T00:48:33;98146.97;;;22.70;46.76
65756;BME280;52489;47.502;18.940;2022-07-29T00:49:36;98144.69;;;22.73;46.65
65756;BME280;52489;47.502;18.940;2022-07-29T00:50:40;98147.47;;;22.90;46.29
65756;BME280;52489;47.502;18.940;2022-07-29T00:51:43;98148.56;;;22.82;46.46
65756;BME280;52489;47.502;18.940;2022-07-29T00:52:47;98144.72;;;22.80;46.60
65756;BME280;52489;47.502;18.940;2022-07-29T00:53:50;98149.28;;;22.72;46.73
65756;BME280;52489;47.502;18.940;2022-07-29T00:54:53;98147.38;;;22.80;46.52
65756;BME280;52489;47.502;18.940;2022-07-29T00:55:57;98147.72;;;22.71;46.77
65756;BME280;52489;47.502;18.940;2022-07-29T00:57:01;98141.28;;;22.76;46.57
65756;BME280;52489;47.502;18.940;2022-07-29T00:58:08;98143.94;;;22.76;46.72
65756;BME280;52489;47.502;18.940;2022-07-29T00:59:11;98142.03;;;22.76;46.70
65756;BME280;52489;47.502;18.940;2022-07-29T01:00:21;98153.06;;;22.71;46.84
65756;BME280;52489;47.502;18.940;2022-07-29T01:01:24;98151.63;;;22.88;46.33
65756;BME280;52489;47.502;18.940;2022-07-29T01:02:32;98139.78;;;22.85;46.34
65756;BME280;52489;47.502;18.940;2022-07-29T01:03:35;98145.09;;;22.78;46.59
65756;BME280;52489;47.502;18.940;2022-07-29T01:04:38;98141.72;;;22.85;46.35
65756;BME280;52489;47.502;18.940;2022-07-29T01:05:44;98145.06;;;22.71;46.70
65756;BME280;52489;47.502;18.940;2022-07-29T01:06:54;98136.72;;;22.83;46.39
65756;BME280;52489;47.502;18.940;2022-07-29T01:08:02;98133.66;;;22.78;46.54
65756;BME280;52489;47.502;18.940;2022-07-29T01:09:05;98136.28;;;22.70;46.77
65756;BME280;52489;47.502;18.940;2022-07-29T01:10:09;98137.00;;;22.64;46.97
65756;BME280;52489;47.502;18.940;2022-07-29T01:11:13;98137.34;;;22.59;47.05
65756;BME280;52489;47.502;18.940;2022-07-29T01:12:22;98132.44;;;22.64;47.03
65756;BME280;52489;47.502;18.940;2022-07-29T01:13:30;98127.84;;;22.65;46.82
65756;BME280;52489;47.502;18.940;2022-07-29T01:14:34;98131.69;;;22.71;46.76
65756;BME280;52489;47.502;18.940;2022-07-29T01:15:47;98135.13;;;22.68;46.88
65756;BME280;52489;47.502;18.940;2022-07-29T01:16:58;98135.88;;;22.68;46.98
65756;BME280;52489;47.502;18.940;2022-07-29T01:18:17;98137.38;;;22.62;47.05
65756;BME280;52489;47.502;18.940;2022-07-29T01:19:51;98140.84;;;22.66;46.90
65756;BME280;52489;47.502;18.940;2022-07-29T01:21:22;98134.34;;;22.64;47.00
65756;BME280;52489;47.502;18.940;2022-07-29T01:22:42;98142.75;;;22.69;46.81
65756;BME280;52489;47.502;18.940;2022-07-29T01:24:18;98138.16;;;22.63;47.11
65756;BME280;52489;47.502;18.940;2022-07-29T01:28:52;98138.19;;;22.66;46.91
65756;BME280;52489;47.502;18.940;2022-07-29T01:29:59;98130.41;;;22.47;47.53
65756;BME280;52489;47.502;18.940;2022-07-29T01:31:07;98127.00;;;22.54;47.28
65756;BME280;52489;47.502;18.940;2022-07-29T01:32:28;98128.50;;;22.47;47.40
65756;BME280;52489;47.502;18.940;2022-07-29T01:33:36;98135.00;;;22.50;47.43
65756;BME280;52489;47.502;18.940;2022-07-29T01:34:56;98129.31;;;22.55;47.28
65756;BME280;52489;47.502;18.940;2022-07-29T01:36:07;98136.13;;;22.45;47.60
65756;BME280;52489;47.502;18.940;2022-07-29T01:37:24;98131.56;;;22.49;47.37
65756;BME280;52489;47.502;18.940;2022-07-29T01:38:28;98128.91;;;22.53;47.26
65756;BME280;52489;47.502;18.940;2022-07-29T01:39:34;98133.47;;;22.49;47.48
65756;BME280;52489;47.502;18.940;2022-07-29T01:40:44;98128.91;;;22.49;47.47
65756;BME280;52489;47.502;18.940;2022-07-29T01:43:10;98126.66;;;22.55;47.45
65756;BME280;52489;47.502;18.940;2022-07-29T01:44:16;98131.25;;;22.58;47.30
65756;BME280;52489;47.502;18.940;2022-07-29T01:46:56;98134.59;;;22.44;47.74
65756;BME280;52489;47.502;18.940;2022-07-29T01:49:36;98133.37;;;22.35;48.04
65756;BME280;52489;47.502;18.940;2022-07-29T01:50:58;98132.63;;;22.38;48.03
65756;BME280;52489;47.502;18.940;2022-07-29T01:52:08;98131.91;;;22.41;47.98
65756;BME280;52489;47.502;18.940;2022-07-29T01:53:20;98131.44;;;22.32;48.24
65756;BME280;52489;47.502;18.940;2022-07-29T01:54:35;98141.03;;;22.36;48.12
65756;BME280;52489;47.502;18.940;2022-07-29T01:55:43;98129.97;;;22.41;48.07
65756;BME280;52489;47.502;18.940;2022-07-29T01:56:50;98140.66;;;22.38;48.10
65756;BME280;52489;47.502;18.940;2022-07-29T01:57:55;98125.72;;;22.30;48.32
65756;BME280;52489;47.502;18.940;2022-07-29T01:59:01;98137.19;;;22.34;48.25
65756;BME280;52489;47.502;18.940;2022-07-29T02:00:06;98123.47;;;22.39;48.08
65756;BME280;52489;47.502;18.940;2022-07-29T02:01:10;98125.72;;;22.30;48.47
65756;BME280;52489;47.502;18.940;2022-07-29T02:02:16;98124.53;;;22.23;48.70
65756;BME280;52489;47.502;18.940;2022-07-29T02:03:21;98122.69;;;22.31;48.53
65756;BME280;52489;47.502;18.940;2022-07-29T02:04:25;98120.78;;;22.35;48.33
65756;BME280;52489;47.502;18.940;2022-07-29T02:05:32;98126.41;;;22.19;49.03
65756;BME280;52489;47.502;18.940;2022-07-29T02:06:38;98126.13;;;22.35;48.39
65756;BME280;52489;47.502;18.940;2022-07-29T02:07:44;98126.06;;;22.24;48.74
65756;BME280;52489;47.502;18.940;2022-07-29T02:08:51;98120.75;;;22.24;48.74
65756;BME280;52489;47.502;18.940;2022-07-29T02:09:56;98129.88;;;22.27;48.72
65756;BME280;52489;47.502;18.940;2022-07-29T02:11:00;98129.94;;;22.31;48.55
65756;BME280;52489;47.502;18.940;2022-07-29T02:12:06;98125.69;;;22.26;48.80
65756;BME280;52489;47.502;18.940;2022-07-29T02:13:11;98131.81;;;22.30;48.62
65756;BME280;52489;47.502;18.940;2022-07-29T02:14:18;98127.22;;;22.27;48.64
65756;BME280;52489;47.502;18.940;2022-07-29T02:15:24;98127.19;;;22.23;48.82
65756;BME280;52489;47.502;18.940;2022-07-29T02:16:31;98123.44;;;22.32;48.66
65756;BME280;52489;47.502;18.940;2022-07-29T02:17:43;98126.06;;;22.24;48.82
65756;BME280;52489;47.502;18.940;2022-07-29T02:18:50;98120.00;;;22.31;48.77
65756;BME280;52489;47.502;18.940;2022-07-29T02:19:56;98126.53;;;22.34;48.70
65756;BME280;52489;47.502;18.940;2022-07-29T02:21:01;98121.50;;;22.29;48.81
65756;BME280;52489;47.502;18.940;2022-07-29T02:22:06;98114.28;;;22.29;48.85
65756;BME280;52489;47.502;18.940;2022-07-29T02:23:11;98121.13;;;22.30;48.78
65756;BME280;52489;47.502;18.940;2022-07-29T02:24:16;98114.59;;;22.24;48.95
65756;BME280;52489;47.502;18.940;2022-07-29T02:25:22;98111.25;;;22.31;48.86
65756;BME280;52489;47.502;18.940;2022-07-29T02:26:27;98112.81;;;22.39;48.69
65756;BME280;52489;47.502;18.940;2022-07-29T02:27:33;98119.25;;;22.31;48.83
65756;BME280;52489;47.502;18.940;2022-07-29T02:28:39;98109.75;;;22.33;48.83
65756;BME280;52489;47.502;18.940;2022-07-29T02:29:45;98110.87;;;22.32;48.86
65756;BME280;52489;47.502;18.940;2022-07-29T02:30:50;98115.88;;;22.37;48.76
65756;BME280;52489;47.502;18.940;2022-07-29T02:31:56;98115.12;;;22.44;48.55
65756;BME280;52489;47.502;18.940;2022-07-29T02:33:01;98111.31;;;22.41;48.62
65756;BME280;52489;47.502;18.940;2022-07-29T02:34:08;98126.25;;;22.49;48.48
65756;BME280;52489;47.502;18.940;2022-07-29T02:35:14;98116.22;;;22.36;48.64
65756;BME280;52489;47.502;18.940;2022-07-29T02:36:22;98120.75;;;22.28;48.94
65756;BME280;52489;47.502;18.940;2022-07-29T02:37:26;98121.19;;;22.34;48.80
65756;BME280;52489;47.502;18.940;2022-07-29T02:38:30;98116.16;;;22.25;49.04
65756;BME280;52489;47.502;18.940;2022-07-29T02:39:54;98118.34;;;22.16;49.42
65756;BME280;52489;47.502;18.940;2022-07-29T02:40:58;98114.97;;;22.19;49.33
65756;BME280;52489;47.502;18.940;2022-07-29T02:42:05;98109.19;;;22.13;49.57
65756;BME280;52489;47.502;18.940;2022-07-29T02:43:10;98116.91;;;22.22;49.27
65756;BME280;52489;47.502;18.940;2022-07-29T02:44:16;98109.31;;;22.28;49.14
65756;BME280;52489;47.502;18.940;2022-07-29T02:45:21;98110.09;;;22.28;49.13
65756;BME280;52489;47.502;18.940;2022-07-29T02:48:13;98107.44;;;22.32;48.93
65756;BME280;52489;47.502;18.940;2022-07-29T02:50:35;98114.59;;;22.20;49.34
65756;BME280;52489;47.502;18.940;2022-07-29T02:52:01;98116.50;;;22.20;49.38
65756;BME280;52489;47.502;18.940;2022-07-29T02:53:18;98112.34;;;22.26;49.17
65756;BME280;52489;47.502;18.940;2022-07-29T02:54:42;98108.50;;;22.23;49.11
65756;BME280;52489;47.502;18.940;2022-07-29T02:55:55;98117.66;;;22.22;49.15
65756;BME280;52489;47.502;18.940;2022-07-29T02:57:02;98110.50;;;22.34;48.74
65756;BME280;52489;47.502;18.940;2022-07-29T02:58:28;98114.59;;;22.24;49.09
65756;BME280;52489;47.502;18.940;2022-07-29T02:59:34;98108.91;;;22.22;49.12
65756;BME280;52489;47.502;18.940;2022-07-29T03:00:40;98113.41;;;22.18;49.34
65756;BME280;52489;47.502;18.940;2022-07-29T03:01:43;98112.50;;;22.03;49.91
65756;BME280;52489;47.502;18.940;2022-07-29T03:02:51;98112.97;;;22.12;49.50
65756;BME280;52489;47.502;18.940;2022-07-29T03:03:55;98114.00;;;22.00;49.81
65756;BME280;52489;47.502;18.940;2022-07-29T03:04:58;98115.19;;;22.03;49.79
65756;BME280;52489;47.502;18.940;2022-07-29T03:06:03;98109.47;;;22.01;49.84
65756;BME280;52489;47.502;18.940;2022-07-29T03:07:06;98108.31;;;22.02;49.91
65756;BME280;52489;47.502;18.940;2022-07-29T03:08:11;98107.25;;;22.10;49.60
65756;BME280;52489;47.502;18.940;2022-07-29T03:09:15;98114.09;;;22.08;49.57
65756;BME280;52489;47.502;18.940;2022-07-29T03:10:18;98118.69;;;22.11;49.55
65756;BME280;52489;47.502;18.940;2022-07-29T03:11:21;98115.22;;;22.07;49.62
65756;BME280;52489;47.502;18.940;2022-07-29T03:12:45;98116.28;;;21.95;49.98
65756;BME280;52489;47.502;18.940;2022-07-29T03:13:48;98108.31;;;22.02;49.77
65756;BME280;52489;47.502;18.940;2022-07-29T03:14:52;98111.75;;;22.02;49.77
65756;BME280;52489;47.502;18.940;2022-07-29T03:15:57;98115.16;;;21.99;49.90
65756;BME280;52489;47.502;18.940;2022-07-29T03:17:02;98117.91;;;22.10;49.61
65756;BME280;52489;47.502;18.940;2022-07-29T03:18:06;98115.19;;;22.03;49.82
65756;BME280;52489;47.502;18.940;2022-07-29T03:19:09;98119.75;;;22.02;49.75
65756;BME280;52489;47.502;18.940;2022-07-29T03:20:12;98114.72;;;21.94;50.00
65756;BME280;52489;47.502;18.940;2022-07-29T03:21:16;98116.69;;;22.00;49.85
65756;BME280;52489;47.502;18.940;2022-07-29T03:22:19;98119.00;;;22.02;49.86
65756;BME280;52489;47.502;18.940;2022-07-29T03:23:23;98117.91;;;22.07;49.69
65756;BME280;52489;47.502;18.940;2022-07-29T03:24:36;98110.25;;;22.05;49.79
65756;BME280;52489;47.502;18.940;2022-07-29T03:25:39;98110.94;;;21.95;50.03
65756;BME280;52489;47.502;18.940;2022-07-29T03:26:42;98116.63;;;21.93;50.08
65756;BME280;52489;47.502;18.940;2022-07-29T03:27:45;98112.00;;;21.87;50.22
65756;BME280;52489;47.502;18.940;2022-07-29T03:28:48;98118.94;;;21.95;49.93
65756;BME280;52489;47.502;18.940;2022-07-29T03:29:51;98116.97;;;21.88;50.20
65756;BME280;52489;47.502;18.940;2022-07-29T03:30:54;98112.34;;;21.81;50.32
65756;BME280;52489;47.502;18.940;2022-07-29T03:31:57;98110.41;;;21.78;50.58
65756;BME280;52489;47.502;18.940;2022-07-29T03:33:00;98112.06;;;21.94;49.95
65756;BME280;52489;47.502;18.940;2022-07-29T03:34:03;98123.06;;;21.89;50.08
65756;BME280;52489;47.502;18.940;2022-07-29T03:35:07;98120.03;;;21.90;50.07
65756;BME280;52489;47.502;18.940;2022-07-29T03:36:10;98113.19;;;21.89;50.23
65756;BME280;52489;47.502;18.940;2022-07-29T03:37:14;98116.13;;;21.77;50.58
65756;BME280;52489;47.502;18.940;2022-07-29T03:38:16;98110.13;;;21.91;50.10
65756;BME280;52489;47.502;18.940;2022-07-29T03:39:22;98113.25;;;22.00;49.79
65756;BME280;52489;47.502;18.940;2022-07-29T03:40:49;98114.81;;;22.01;49.70
65756;BME280;52489;47.502;18.940;2022-07-29T03:41:56;98112.91;;;22.01;49.70
65756;BME280;52489;47.502;18.940;2022-07-29T03:43:01;98114.69;;;21.87;50.12
65756;BME280;52489;47.502;18.940;2022-07-29T03:44:05;98114.75;;;21.97;49.88
65756;BME280;52489;47.502;18.940;2022-07-29T03:45:15;98121.19;;;21.89;50.29
65756;BME280;52489;47.502;18.940;2022-07-29T03:46:22;98118.87;;;21.91;50.11
65756;BME280;52489;47.502;18.940;2022-07-29T03:47:28;98111.72;;;21.99;49.82
65756;BME280;52489;47.502;18.940;2022-07-29T03:48:56;98107.16;;;21.99;49.76
65756;BME280;52489;47.502;18.940;2022-07-29T03:50:06;98114.72;;;21.94;49.92
65756;BME280;52489;47.502;18.940;2022-07-29T03:51:12;98111.00;;;22.02;49.59
65756;BME280;52489;47.502;18.940;2022-07-29T03:52:16;98118.59;;;22.00;49.76
65756;BME280;52489;47.502;18.940;2022-07-29T03:53:19;98113.22;;;21.96;49.91
65756;BME280;52489;47.502;18.940;2022-07-29T03:54:22;98116.97;;;21.88;50.34
65756;BME280;52489;47.502;18.940;2022-07-29T03:55:26;98124.16;;;21.84;50.30
65756;BME280;52489;47.502;18.940;2022-07-29T03:56:32;98121.53;;;21.88;50.17
65756;BME280;52489;47.502;18.940;2022-07-29T03:57:37;98122.00;;;21.97;50.10
65756;BME280;52489;47.502;18.940;2022-07-29T03:58:42;98123.47;;;21.91;50.32
65756;BME280;52489;47.502;18.940;2022-07-29T03:59:47;98120.78;;;21.91;50.30
65756;BME280;52489;47.502;18.940;2022-07-29T04:00:50;98131.03;;;21.85;50.33
65756;BME280;52489;47.502;18.940;2022-07-29T04:01:55;98130.00;;;21.97;49.98
65756;BME280;52489;47.502;18.940;2022-07-29T04:02:58;98122.38;;;21.95;50.05
65756;BME280;52489;47.502;18.940;2022-07-29T04:04:01;98131.13;;;21.96;50.06
65756;BME280;52489;47.502;18.940;2022-07-29T04:05:05;98125.41;;;21.94;50.31
65756;BME280;52489;47.502;18.940;2022-07-29T04:06:08;98124.19;;;21.88;50.51
65756;BME280;52489;47.502;18.940;2022-07-29T04:07:15;98125.31;;;21.83;50.54
65756;BME280;52489;47.502;18.940;2022-07-29T04:08:18;98127.25;;;21.86;50.41
65756;BME280;52489;47.502;18.940;2022-07-29T04:09:20;98126.97;;;21.98;49.83
65756;BME280;52489;47.502;18.940;2022-07-29T04:10:23;98123.91;;;22.00;49.86
65756;BME280;52489;47.502;18.940;2022-07-29T04:11:34;98124.31;;;21.98;49.64
65756;BME280;52489;47.502;18.940;2022-07-29T04:12:57;98128.47;;;21.96;49.88
65756;BME280;52489;47.502;18.940;2022-07-29T04:14:00;98122.75;;;21.97;49.73
65756;BME280;52489;47.502;18.940;2022-07-29T04:15:03;98127.63;;;21.88;50.00
65756;BME280;52489;47.502;18.940;2022-07-29T04:16:06;98127.25;;;21.86;50.10
65756;BME280;52489;47.502;18.940;2022-07-29T04:17:14;98126.87;;;21.88;50.12
65756;BME280;52489;47.502;18.940;2022-07-29T04:18:17;98126.47;;;21.86;50.22
65756;BME280;52489;47.502;18.940;2022-07-29T04:19:20;98127.63;;;21.88;50.19
65756;BME280;52489;47.502;18.940;2022-07-29T04:20:23;98133.03;;;21.92;50.00
65756;BME280;52489;47.502;18.940;2022-07-29T04:21:26;98132.28;;;21.95;50.06
65756;BME280;52489;47.502;18.940;2022-07-29T04:22:28;98126.94;;;21.95;50.06
65756;BME280;52489;47.502;18.940;2022-07-29T04:23:31;98130.06;;;22.04;49.62
65756;BME280;52489;47.502;18.940;2022-07-29T04:24:35;98136.63;;;22.14;49.32
65756;BME280;52489;47.502;18.940;2022-07-29T04:25:39;98125.25;;;22.17;49.24
65756;BME280;52489;47.502;18.940;2022-07-29T04:26:43;98133.53;;;22.08;49.42
65756;BME280;52489;47.502;18.940;2022-07-29T04:27:45;98124.63;;;21.93;49.97
65756;BME280;52489;47.502;18.940;2022-07-29T04:29:04;98122.00;;;21.97;49.83
65756;BME280;52489;47.502;18.940;2022-07-29T04:30:07;98124.59;;;21.90;50.11
65756;BME280;52489;47.502;18.940;2022-07-29T04:31:10;98133.37;;;21.90;50.03
65756;BME280;52489;47.502;18.940;2022-07-29T04:32:13;98135.31;;;21.97;50.01
65756;BME280;52489;47.502;18.940;2022-07-29T04:33:16;98128.94;;;22.05;49.69
65756;BME280;52489;47.502;18.940;2022-07-29T04:34:19;98130.41;;;21.99;50.13
65756;BME280;52489;47.502;18.940;2022-07-29T04:35:22;98133.19;;;22.13;49.62
65756;BME280;52489;47.502;18.940;2022-07-29T04:36:25;98132.44;;;22.16;49.40
65756;BME280;52489;47.502;18.940;2022-07-29T04:37:31;98128.94;;;22.09;49.65
65756;BME280;52489;47.502;18.940;2022-07-29T04:38:33;98128.22;;;22.12;49.72
65756;BME280;52489;47.502;18.940;2022-07-29T04:39:36;98130.22;;;22.18;49.29
65756;BME280;52489;47.502;18.940;2022-07-29T04:40:39;98138.91;;;22.15;49.50
65756;BME280;52489;47.502;18.940;2022-07-29T04:41:42;98135.91;;;22.17;49.48
65756;BME280;52489;47.502;18.940;2022-07-29T04:42:45;98137.75;;;22.13;49.64
65756;BME280;52489;47.502;18.940;2022-07-29T04:43:50;98133.94;;;22.14;49.70
65756;BME280;52489;47.502;18.940;2022-07-29T04:44:53;98139.28;;;22.14;49.47
65756;BME280;52489;47.502;18.940;2022-07-29T04:45:56;98137.34;;;22.11;49.56
65756;BME280;52489;47.502;18.940;2022-07-29T04:46:59;98141.66;;;22.19;49.97
65756;BME280;52489;47.502;18.940;2022-07-29T04:48:02;98140.53;;;22.23;49.69
65756;BME280;52489;47.502;18.940;2022-07-29T04:49:05;98142.47;;;22.30;49.26
65756;BME280;52489;47.502;18.940;2022-07-29T04:50:09;98137.19;;;22.34;49.40
65756;BME280;52489;47.502;18.940;2022-07-29T04:51:12;98136.50;;;22.47;48.78
65756;BME280;52489;47.502;18.940;2022-07-29T04:52:14;98150.56;;;22.41;48.75
65756;BME280;52489;47.502;18.940;2022-07-29T04:53:17;98136.06;;;22.38;49.09
65756;BME280;52489;47.502;18.940;2022-07-29T04:54:20;98133.81;;;22.44;48.90
65756;BME280;52489;47.502;18.940;2022-07-29T04:55:23;98134.97;;;22.46;48.84
65756;BME280;52489;47.502;18.940;2022-07-29T04:56:26;98136.88;;;22.42;49.34
65756;BME280;52489;47.502;18.940;2022-07-29T04:57:29;98134.22;;;22.46;49.31
65756;BME280;52489;47.502;18.940;2022-07-29T04:58:34;98136.56;;;22.51;48.96
65756;BME280;52489;47.502;18.940;2022-07-29T04:59:37;98139.25;;;22.58;48.68
65756;BME280;52489;47.502;18.940;2022-07-29T05:00:40;98136.25;;;22.67;48.26
65756;BME280;52489;47.502;18.940;2022-07-29T05:01:43;98132.84;;;22.66;48.51
65756;BME280;52489;47.502;18.940;2022-07-29T05:02:46;98136.94;;;22.57;49.26
65756;BME280;52489;47.502;18.940;2022-07-29T05:03:49;98134.69;;;22.59;49.04
65756;BME280;52489;47.502;18.940;2022-07-29T05:04:52;98140.81;;;22.63;48.64
65756;BME280;52489;47.502;18.940;2022-07-29T05:05:55;98139.72;;;22.71;48.31
65756;BME280;52489;47.502;18.940;2022-07-29T05:06:58;98142.03;;;22.76;48.41
65756;BME280;52489;47.502;18.940;2022-07-29T05:08:01;98141.69;;;22.81;48.36
65756;BME280;52489;47.502;18.940;2022-07-29T05:09:04;98146.28;;;22.88;48.08
65756;BME280;52489;47.502;18.940;2022-07-29T05:10:08;98140.59;;;22.89;48.24
65756;BME280;52489;47.502;18.940;2022-07-29T05:11:11;98143.63;;;22.91;48.36
65756;BME280;52489;47.502;18.940;2022-07-29T05:12:21;98141.00;;;22.95;48.48
65756;BME280;52489;47.502;18.940;2022-07-29T05:13:23;98139.47;;;22.94;48.24
65756;BME280;52489;47.502;18.940;2022-07-29T05:14:26;98140.31;;;23.02;47.94
65756;BME280;52489;47.502;18.940;2022-07-29T05:15:30;98142.22;;;23.08;47.91
65756;BME280;52489;47.502;18.940;2022-07-29T05:16:33;98136.13;;;23.11;47.67
65756;BME280;52489;47.502;18.940;2022-07-29T05:17:36;98138.06;;;23.18;47.51
65756;BME280;52489;47.502;18.940;2022-07-29T05:18:39;98141.16;;;23.27;47.09
65756;BME280;52489;47.502;18.940;2022-07-29T05:19:43;98133.13;;;23.24;47.09
65756;BME280;52489;47.502;18.940;2022-07-29T05:20:45;98133.94;;;23.35;46.92
65756;BME280;52489;47.502;18.940;2022-07-29T05:21:51;98132.00;;;23.32;47.01
65756;BME280;52489;47.502;18.940;2022-07-29T05:22:58;98140.06;;;23.43;46.71
65756;BME280;52489;47.502;18.940;2022-07-29T05:24:01;98140.09;;;23.46;46.60
65756;BME280;52489;47.502;18.940;2022-07-29T05:25:05;98133.53;;;23.36;46.68
65756;BME280;52489;47.502;18.940;2022-07-29T05:26:10;98133.53;;;23.36;46.96
65756;BME280;52489;47.502;18.940;2022-07-29T05:27:14;98133.53;;;23.33;47.38
65756;BME280;52489;47.502;18.940;2022-07-29T05:28:17;98137.00;;;23.37;47.16
65756;BME280;52489;47.502;18.940;2022-07-29T05:29:20;98138.94;;;23.44;47.04
65756;BME280;52489;47.502;18.940;2022-07-29T05:30:43;98146.56;;;23.45;46.72
65756;BME280;52489;47.502;18.940;2022-07-29T05:31:47;98139.72;;;23.55;46.83
65756;BME280;52489;47.502;18.940;2022-07-29T05:32:50;98139.69;;;23.51;46.66
65756;BME280;52489;47.502;18.940;2022-07-29T05:33:53;98132.81;;;23.47;46.93
65756;BME280;52489;47.502;18.940;2022-07-29T05:34:56;98139.72;;;23.55;46.54
65756;BME280;52489;47.502;18.940;2022-07-29T05:35:59;98135.13;;;23.66;46.06
65756;BME280;52489;47.502;18.940;2022-07-29T05:37:02;98140.56;;;23.77;46.05
65756;BME280;52489;47.502;18.940;2022-07-29T05:38:05;98140.16;;;23.71;46.22
65756;BME280;52489;47.502;18.940;2022-07-29T05:39:08;98139.78;;;23.73;46.17
65756;BME280;52489;47.502;18.940;2022-07-29T05:40:11;98142.50;;;23.87;45.62
65756;BME280;52489;47.502;18.940;2022-07-29T05:41:14;98137.47;;;23.75;45.82
65756;BME280;52489;47.502;18.940;2022-07-29T05:42:17;98135.59;;;23.79;45.73
65756;BME280;52489;47.502;18.940;2022-07-29T05:43:20;98141.34;;;23.84;45.58
65756;BME280;52489;47.502;18.940;2022-07-29T05:44:23;98147.44;;;23.85;45.83
65756;BME280;52489;47.502;18.940;2022-07-29T05:45:27;98147.44;;;23.89;45.78
65756;BME280;52489;47.502;18.940;2022-07-29T05:46:30;98140.59;;;24.02;45.43
65756;BME280;52489;47.502;18.940;2022-07-29T05:47:34;98143.25;;;24.13;45.29
65756;BME280;52489;47.502;18.940;2022-07-29T05:48:37;98147.09;;;24.08;45.38
65756;BME280;52489;47.502;18.940;2022-07-29T05:49:40;98141.37;;;24.17;45.16
65756;BME280;52489;47.502;18.940;2022-07-29T05:50:43;98140.97;;;24.22;45.14
65756;BME280;52489;47.502;18.940;2022-07-29T05:51:46;98143.25;;;24.23;45.02
65756;BME280;52489;47.502;18.940;2022-07-29T05:52:50;98147.84;;;24.12;45.11
65756;BME280;52489;47.502;18.940;2022-07-29T05:53:53;98155.13;;;24.12;45.12
65756;BME280;52489;47.502;18.940;2022-07-29T05:54:56;98147.47;;;24.14;45.07